Terminal Aerodrome Forecast
Issued by NWS

Home | Current Version | Previous Version | Text Only | Print | Product List | Glossary On
Versions: 1 2 3 4 5 6 7 8 9 10 11 12 13 14 15 16 17 18 19 20 21 22
000
FTUS41 KRLX 041700 RRA
TAFCKB
TAF
KCKB 041756Z 0418/0518 32003KT 4SM -RA BR OVC005
     FM050300 33008KT 3SM -PL BR OVC008
     FM050500 33008KT 2SM -SNPL BR OVC007
     FM050600 35007KT 1/2SM SN FG OVC004
     FM051000 34006KT 2SM -SN BR OVC008
     FM051400 33007KT 5SM -SN BR OVC015=

USA.gov is the U.S. government's official web portal to all federal, state and local government web resources and services.